sensor_id;sensor_type;location;lat;lon;timestamp;temperature;humidity
1992;DHT22;997;48.448;8.924;2022-08-19T03:01:46;20.80;99.90
1992;DHT22;997;48.448;8.924;2022-08-19T03:04:14;20.80;99.90
1992;DHT22;997;48.448;8.924;2022-08-19T03:06:43;20.80;99.90
1992;DHT22;997;48.448;8.924;2022-08-19T03:09:09;20.70;99.90
1992;DHT22;997;48.448;8.924;2022-08-19T03:11:36;20.70;99.90
1992;DHT22;997;48.448;8.924;2022-08-19T03:14:03;20.70;99.90
1992;DHT22;997;48.448;8.924;2022-08-19T03:16:31;20.70;99.90
1992;DHT22;997;48.448;8.924;2022-08-19T03:18:57;20.70;99.90
1992;DHT22;997;48.448;8.924;2022-08-19T03:21:26;20.80;99.90
1992;DHT22;997;48.448;8.924;2022-08-19T03:24:01;20.80;99.90
1992;DHT22;997;48.448;8.924;2022-08-19T03:26:27;20.80;99.90
1992;DHT22;997;48.448;8.924;2022-08-19T03:28:53;20.70;99.90
1992;DHT22;997;48.448;8.924;2022-08-19T03:31:21;20.70;99.90
1992;DHT22;997;48.448;8.924;2022-08-19T03:33:49;20.60;99.90
1992;DHT22;997;48.448;8.924;2022-08-19T03:36:20;20.50;99.90
1992;DHT22;997;48.448;8.924;2022-08-19T03:38:51;20.60;99.90
1992;DHT22;997;48.448;8.924;2022-08-19T03:41:21;20.60;99.90
1992;DHT22;997;48.448;8.924;2022-08-19T03:43:48;20.50;99.90
1992;DHT22;997;48.448;8.924;2022-08-19T03:46:23;20.50;99.90
1992;DHT22;997;48.448;8.924;2022-08-19T03:48:52;20.40;99.90
1992;DHT22;997;48.448;8.924;2022-08-19T03:51:30;20.20;99.90
1992;DHT22;997;48.448;8.924;2022-08-19T03:53:59;20.10;99.90
1992;DHT22;997;48.448;8.924;2022-08-19T03:56:26;20.00;99.90
1992;DHT22;997;48.448;8.924;2022-08-19T03:58:56;19.90;99.90
1992;DHT22;997;48.448;8.924;2022-08-19T04:01:24;20.00;99.90
1992;DHT22;997;48.448;8.924;2022-08-19T04:03:52;20.20;99.90
1992;DHT22;997;48.448;8.924;2022-08-19T04:06:24;20.30;99.90
1992;DHT22;997;48.448;8.924;2022-08-19T04:08:52;20.30;99.90
1992;DHT22;997;48.448;8.924;2022-08-19T04:11:45;20.50;99.90
1992;DHT22;997;48.448;8.924;2022-08-19T04:14:15;20.50;99.90
1992;DHT22;997;48.448;8.924;2022-08-19T04:16:42;20.60;99.90
1992;DHT22;997;48.448;8.924;2022-08-19T04:19:09;20.60;99.90
1992;DHT22;997;48.448;8.924;2022-08-19T04:21:35;20.40;99.90
1992;DHT22;997;48.448;8.924;2022-08-19T04:24:02;20.50;99.90
1992;DHT22;997;48.448;8.924;2022-08-19T04:26:31;20.50;99.90
1992;DHT22;997;48.448;8.924;2022-08-19T04:29:06;20.60;99.90
1992;DHT22;997;48.448;8.924;2022-08-19T04:31:32;20.60;99.90
1992;DHT22;997;48.448;8.924;2022-08-19T04:34:08;20.60;99.90
1992;DHT22;997;48.448;8.924;2022-08-19T04:36:37;20.50;99.90
1992;DHT22;997;48.448;8.924;2022-08-19T04:39:06;20.60;99.90
1992;DHT22;997;48.448;8.924;2022-08-19T04:41:33;20.50;99.90
1992;DHT22;997;48.448;8.924;2022-08-19T04:44:25;20.60;99.90
1992;DHT22;997;48.448;8.924;2022-08-19T04:46:52;20.50;99.90
1992;DHT22;997;48.448;8.924;2022-08-19T04:49:20;20.60;99.90
1992;DHT22;997;48.448;8.924;2022-08-19T04:51:47;20.70;99.90
1992;DHT22;997;48.448;8.924;2022-08-19T04:54:15;20.70;99.90
1992;DHT22;997;48.448;8.924;2022-08-19T04:56:41;20.80;99.90
1992;DHT22;997;48.448;8.924;2022-08-19T04:59:06;20.80;99.90
1992;DHT22;997;48.448;8.924;2022-08-19T05:01:33;20.80;99.90
1992;DHT22;997;48.448;8.924;2022-08-19T05:04:01;20.80;99.90
1992;DHT22;997;48.448;8.924;2022-08-19T05:06:30;20.80;99.90
1992;DHT22;997;48.448;8.924;2022-08-19T05:08:59;20.60;99.90
1992;DHT22;997;48.448;8.924;2022-08-19T05:11:27;20.60;99.90
1992;DHT22;997;48.448;8.924;2022-08-19T05:13:55;20.60;99.90
1992;DHT22;997;48.448;8.924;2022-08-19T05:16:22;20.60;99.90
1992;DHT22;997;48.448;8.924;2022-08-19T05:18:48;20.60;99.90
1992;DHT22;997;48.448;8.924;2022-08-19T05:21:32;20.70;99.90
1992;DHT22;997;48.448;8.924;2022-08-19T05:24:17;20.80;99.90
1992;DHT22;997;48.448;8.924;2022-08-19T05:26:46;20.80;99.90
1992;DHT22;997;48.448;8.924;2022-08-19T05:29:14;20.80;99.90
1992;DHT22;997;48.448;8.924;2022-08-19T05:31:40;20.90;99.90
1992;DHT22;997;48.448;8.924;2022-08-19T05:34:07;20.90;99.90
1992;DHT22;997;48.448;8.924;2022-08-19T05:36:41;21.00;99.90
1992;DHT22;997;48.448;8.924;2022-08-19T05:39:14;21.00;99.90
1992;DHT22;997;48.448;8.924;2022-08-19T05:41:46;20.90;99.90
1992;DHT22;997;48.448;8.924;2022-08-19T05:44:12;20.90;99.90
1992;DHT22;997;48.448;8.924;2022-08-19T05:46:38;20.90;99.90
1992;DHT22;997;48.448;8.924;2022-08-19T05:49:06;20.80;99.90
1992;DHT22;997;48.448;8.924;2022-08-19T05:51:33;20.90;99.90
1992;DHT22;997;48.448;8.924;2022-08-19T05:54:00;20.90;99.90
1992;DHT22;997;48.448;8.924;2022-08-19T05:56:26;21.00;99.90
1992;DHT22;997;48.448;8.924;2022-08-19T05:58:52;21.00;99.90
1992;DHT22;997;48.448;8.924;2022-08-19T06:01:20;21.00;99.90
1992;DHT22;997;48.448;8.924;2022-08-19T06:03:46;21.10;99.90
1992;DHT22;997;48.448;8.924;2022-08-19T06:06:15;21.10;99.90
1992;DHT22;997;48.448;8.924;2022-08-19T06:08:42;21.10;99.90
1992;DHT22;997;48.448;8.924;2022-08-19T06:11:32;21.20;99.90
1992;DHT22;997;48.448;8.924;2022-08-19T06:14:05;21.10;99.90
1992;DHT22;997;48.448;8.924;2022-08-19T06:16:37;21.10;99.90
1992;DHT22;997;48.448;8.924;2022-08-19T06:19:06;21.10;99.90
1992;DHT22;997;48.448;8.924;2022-08-19T06:21:34;21.00;99.90
1992;DHT22;997;48.448;8.924;2022-08-19T06:24:04;21.10;99.90
1992;DHT22;997;48.448;8.924;2022-08-19T06:26:30;21.10;99.90
1992;DHT22;997;48.448;8.924;2022-08-19T06:28:56;21.10;99.90
1992;DHT22;997;48.448;8.924;2022-08-19T06:31:26;21.10;99.90
1992;DHT22;997;48.448;8.924;2022-08-19T06:33:52;21.10;99.90
1992;DHT22;997;48.448;8.924;2022-08-19T06:36:19;21.10;99.90
1992;DHT22;997;48.448;8.924;2022-08-19T06:38:45;21.10;99.90
1992;DHT22;997;48.448;8.924;2022-08-19T06:41:10;21.00;99.90
1992;DHT22;997;48.448;8.924;2022-08-19T06:43:36;21.10;99.90
1992;DHT22;997;48.448;8.924;2022-08-19T06:46:03;21.00;99.90
1992;DHT22;997;48.448;8.924;2022-08-19T06:48:30;21.10;99.90
1992;DHT22;997;48.448;8.924;2022-08-19T06:50:55;21.00;99.90
1992;DHT22;997;48.448;8.924;2022-08-19T06:53:21;21.10;99.90
1992;DHT22;997;48.448;8.924;2022-08-19T06:55:47;21.10;99.90
1992;DHT22;997;48.448;8.924;2022-08-19T06:58:13;21.00;99.90
1992;DHT22;997;48.448;8.924;2022-08-19T07:00:39;21.00;99.90
1992;DHT22;997;48.448;8.924;2022-08-19T07:03:05;20.90;99.90
1992;DHT22;997;48.448;8.924;2022-08-19T07:05:31;20.70;99.90
1992;DHT22;997;48.448;8.924;2022-08-19T07:07:57;20.70;99.90
1992;DHT22;997;48.448;8.924;2022-08-19T07:10:23;20.70;99.90
1992;DHT22;997;48.448;8.924;2022-08-19T07:12:48;20.80;99.90
1992;DHT22;997;48.448;8.924;2022-08-19T07:15:15;21.00;99.90
1992;DHT22;997;48.448;8.924;2022-08-19T07:17:41;20.90;99.90
1992;DHT22;997;48.448;8.924;2022-08-19T07:20:09;20.70;99.90
1992;DHT22;997;48.448;8.924;2022-08-19T07:22:36;20.70;99.90
1992;DHT22;997;48.448;8.924;2022-08-19T07:25:03;20.90;99.90
1992;DHT22;997;48.448;8.924;2022-08-19T07:27:31;20.80;99.90
1992;DHT22;997;48.448;8.924;2022-08-19T07:29:56;20.80;99.90
1992;DHT22;997;48.448;8.924;2022-08-19T07:32:22;20.80;99.90
1992;DHT22;997;48.448;8.924;2022-08-19T07:34:48;20.80;99.90
1992;DHT22;997;48.448;8.924;2022-08-19T07:37:13;20.90;99.90
1992;DHT22;997;48.448;8.924;2022-08-19T07:39:39;21.00;99.90
1992;DHT22;997;48.448;8.924;2022-08-19T07:42:08;20.90;99.90
1992;DHT22;997;48.448;8.924;2022-08-19T07:44:35;21.00;99.90
1992;DHT22;997;48.448;8.924;2022-08-19T07:47:01;21.00;99.90
1992;DHT22;997;48.448;8.924;2022-08-19T07:49:27;21.10;99.90
1992;DHT22;997;48.448;8.924;2022-08-19T07:51:56;21.10;99.90
1992;DHT22;997;48.448;8.924;2022-08-19T07:54:24;21.20;99.90
1992;DHT22;997;48.448;8.924;2022-08-19T07:56:50;21.20;99.90
1992;DHT22;997;48.448;8.924;2022-08-19T07:59:19;21.30;99.90
1992;DHT22;997;48.448;8.924;2022-08-19T08:01:46;21.50;99.90
1992;DHT22;997;48.448;8.924;2022-08-19T08:04:13;21.50;99.90
1992;DHT22;997;48.448;8.924;2022-08-19T08:06:57;21.50;99.90
1992;DHT22;997;48.448;8.924;2022-08-19T08:09:43;21.50;99.90
1992;DHT22;997;48.448;8.924;2022-08-19T08:12:13;21.60;99.90
1992;DHT22;997;48.448;8.924;2022-08-19T08:14:48;21.70;99.90
1992;DHT22;997;48.448;8.924;2022-08-19T08:17:16;21.60;99.90
1992;DHT22;997;48.448;8.924;2022-08-19T08:19:43;21.70;99.90
1992;DHT22;997;48.448;8.924;2022-08-19T08:22:10;21.60;99.90
1992;DHT22;997;48.448;8.924;2022-08-19T08:24:56;21.60;99.90
1992;DHT22;997;48.448;8.924;2022-08-19T08:27:24;21.60;99.90
1992;DHT22;997;48.448;8.924;2022-08-19T08:29:50;21.60;99.90
1992;DHT22;997;48.448;8.924;2022-08-19T08:32:16;21.70;99.90
1992;DHT22;997;48.448;8.924;2022-08-19T08:34:42;21.60;99.90
1992;DHT22;997;48.448;8.924;2022-08-19T08:37:08;21.80;99.90
1992;DHT22;997;48.448;8.924;2022-08-19T08:39:34;21.80;99.90
1992;DHT22;997;48.448;8.924;2022-08-19T08:44:56;21.90;99.90
1992;DHT22;997;48.448;8.924;2022-08-19T08:47:25;21.90;99.90
1992;DHT22;997;48.448;8.924;2022-08-19T08:50:01;21.90;99.90
1992;DHT22;997;48.448;8.924;2022-08-19T08:52:33;21.80;99.90
1992;DHT22;997;48.448;8.924;2022-08-19T08:55:15;21.80;99.90
1992;DHT22;997;48.448;8.924;2022-08-19T08:57:57;21.90;99.90
1992;DHT22;997;48.448;8.924;2022-08-19T09:00:27;21.90;99.90
1992;DHT22;997;48.448;8.924;2022-08-19T09:02:55;21.80;99.90
1992;DHT22;997;48.448;8.924;2022-08-19T09:05:30;21.90;99.90
1992;DHT22;997;48.448;8.924;2022-08-19T09:08:00;21.90;99.90
1992;DHT22;997;48.448;8.924;2022-08-19T09:16:02;21.80;99.90
1992;DHT22;997;48.448;8.924;2022-08-19T09:18:49;21.80;99.90
1992;DHT22;997;48.448;8.924;2022-08-19T09:21:18;21.80;99.90
1992;DHT22;997;48.448;8.924;2022-08-19T09:23:45;21.80;99.90
1992;DHT22;997;48.448;8.924;2022-08-19T09:26:14;21.70;99.90
1992;DHT22;997;48.448;8.924;2022-08-19T09:28:41;21.50;99.90
1992;DHT22;997;48.448;8.924;2022-08-19T09:31:13;21.50;99.90
1992;DHT22;997;48.448;8.924;2022-08-19T09:33:39;21.50;99.90
1992;DHT22;997;48.448;8.924;2022-08-19T09:36:08;21.50;99.90
1992;DHT22;997;48.448;8.924;2022-08-19T09:38:36;21.40;99.90
1992;DHT22;997;48.448;8.924;2022-08-19T09:41:06;21.40;99.90
1992;DHT22;997;48.448;8.924;2022-08-19T09:43:33;21.40;99.90
1992;DHT22;997;48.448;8.924;2022-08-19T09:46:06;21.40;99.90
1992;DHT22;997;48.448;8.924;2022-08-19T09:48:35;21.40;99.90
1992;DHT22;997;48.448;8.924;2022-08-19T09:51:10;21.50;99.90
1992;DHT22;997;48.448;8.924;2022-08-19T09:53:37;21.50;99.90
1992;DHT22;997;48.448;8.924;2022-08-19T09:56:04;21.50;99.90
1992;DHT22;997;48.448;8.924;2022-08-19T09:58:31;21.50;99.90
1992;DHT22;997;48.448;8.924;2022-08-19T10:00:58;21.30;99.90
1992;DHT22;997;48.448;8.924;2022-08-19T10:03:25;21.10;99.90
1992;DHT22;997;48.448;8.924;2022-08-19T10:05:51;21.00;99.90
1992;DHT22;997;48.448;8.924;2022-08-19T10:08:24;21.00;99.90
1992;DHT22;997;48.448;8.924;2022-08-19T10:10:51;21.00;99.90
1992;DHT22;997;48.448;8.924;2022-08-19T10:13:22;20.90;99.90
1992;DHT22;997;48.448;8.924;2022-08-19T10:15:49;20.90;99.90
1992;DHT22;997;48.448;8.924;2022-08-19T10:18:19;20.90;99.90
1992;DHT22;997;48.448;8.924;2022-08-19T10:20:47;21.10;99.90
1992;DHT22;997;48.448;8.924;2022-08-19T10:23:14;21.10;99.90
1992;DHT22;997;48.448;8.924;2022-08-19T10:25:41;21.20;99.90
1992;DHT22;997;48.448;8.924;2022-08-19T10:28:08;21.30;99.90
1992;DHT22;997;48.448;8.924;2022-08-19T10:30:36;21.40;99.90
1992;DHT22;997;48.448;8.924;2022-08-19T10:33:02;21.50;99.90
1992;DHT22;997;48.448;8.924;2022-08-19T10:35:28;21.60;99.90
1992;DHT22;997;48.448;8.924;2022-08-19T10:37:55;21.80;99.90
1992;DHT22;997;48.448;8.924;2022-08-19T10:40:26;21.80;99.90
1992;DHT22;997;48.448;8.924;2022-08-19T10:42:53;21.90;99.90
1992;DHT22;997;48.448;8.924;2022-08-19T10:45:19;21.90;99.90
1992;DHT22;997;48.448;8.924;2022-08-19T10:47:47;21.90;99.90
1992;DHT22;997;48.448;8.924;2022-08-19T10:50:13;21.80;99.90
1992;DHT22;997;48.448;8.924;2022-08-19T10:52:57;21.90;99.90
1992;DHT22;997;48.448;8.924;2022-08-19T10:55:28;22.00;99.90
1992;DHT22;997;48.448;8.924;2022-08-19T10:58:14;22.10;99.90
1992;DHT22;997;48.448;8.924;2022-08-19T11:00:41;22.10;99.90
1992;DHT22;997;48.448;8.924;2022-08-19T11:03:08;22.10;99.90
1992;DHT22;997;48.448;8.924;2022-08-19T11:05:34;22.00;99.90
1992;DHT22;997;48.448;8.924;2022-08-19T11:08:01;21.90;99.90
1992;DHT22;997;48.448;8.924;2022-08-19T11:10:27;21.90;99.90
1992;DHT22;997;48.448;8.924;2022-08-19T11:12:53;21.90;99.90
1992;DHT22;997;48.448;8.924;2022-08-19T11:15:21;22.00;99.90
1992;DHT22;997;48.448;8.924;2022-08-19T11:17:47;21.90;99.90
1992;DHT22;997;48.448;8.924;2022-08-19T11:20:14;21.70;99.90
1992;DHT22;997;48.448;8.924;2022-08-19T11:22:41;21.70;99.90
1992;DHT22;997;48.448;8.924;2022-08-19T11:25:09;21.60;99.90
1992;DHT22;997;48.448;8.924;2022-08-19T11:27:42;21.60;99.90
1992;DHT22;997;48.448;8.924;2022-08-19T11:30:10;21.70;99.90
1992;DHT22;997;48.448;8.924;2022-08-19T11:32:36;21.70;99.90
1992;DHT22;997;48.448;8.924;2022-08-19T11:35:02;21.60;99.90
1992;DHT22;997;48.448;8.924;2022-08-19T11:37:27;21.60;99.90
1992;DHT22;997;48.448;8.924;2022-08-19T11:39:53;21.50;99.90
1992;DHT22;997;48.448;8.924;2022-08-19T11:42:19;21.20;99.90
1992;DHT22;997;48.448;8.924;2022-08-19T11:45:03;21.30;99.90
1992;DHT22;997;48.448;8.924;2022-08-19T11:47:30;21.30;99.90
1992;DHT22;997;48.448;8.924;2022-08-19T11:49:56;21.20;99.90
1992;DHT22;997;48.448;8.924;2022-08-19T11:52:22;21.20;99.90
1992;DHT22;997;48.448;8.924;2022-08-19T11:54:48;21.10;99.90
1992;DHT22;997;48.448;8.924;2022-08-19T11:57:14;21.10;99.90
1992;DHT22;997;48.448;8.924;2022-08-19T11:59:47;21.00;99.90
1992;DHT22;997;48.448;8.924;2022-08-19T12:02:13;21.10;99.90
1992;DHT22;997;48.448;8.924;2022-08-19T12:04:40;21.10;99.90
1992;DHT22;997;48.448;8.924;2022-08-19T12:07:06;20.90;99.90
1992;DHT22;997;48.448;8.924;2022-08-19T12:09:32;20.90;99.90
1992;DHT22;997;48.448;8.924;2022-08-19T12:12:00;21.00;99.90
1992;DHT22;997;48.448;8.924;2022-08-19T12:14:28;21.00;99.90
1992;DHT22;997;48.448;8.924;2022-08-19T12:16:56;21.10;99.90
1992;DHT22;997;48.448;8.924;2022-08-19T12:19:23;21.00;99.90
1992;DHT22;997;48.448;8.924;2022-08-19T12:21:50;20.90;99.90
1992;DHT22;997;48.448;8.924;2022-08-19T12:24:18;20.80;99.90
1992;DHT22;997;48.448;8.924;2022-08-19T12:26:48;20.70;99.90
1992;DHT22;997;48.448;8.924;2022-08-19T12:29:14;20.50;99.90
1992;DHT22;997;48.448;8.924;2022-08-19T12:31:40;20.40;99.90
1992;DHT22;997;48.448;8.924;2022-08-19T12:34:06;20.40;99.90
1992;DHT22;997;48.448;8.924;2022-08-19T12:36:33;20.30;99.90
1992;DHT22;997;48.448;8.924;2022-08-19T12:38:59;20.30;99.90
1992;DHT22;997;48.448;8.924;2022-08-19T12:41:25;20.30;99.90
1992;DHT22;997;48.448;8.924;2022-08-19T12:43:51;20.30;99.90
1992;DHT22;997;48.448;8.924;2022-08-19T12:46:17;20.30;99.90
1992;DHT22;997;48.448;8.924;2022-08-19T12:48:44;20.20;99.90
1992;DHT22;997;48.448;8.924;2022-08-19T12:51:14;20.20;99.90
1992;DHT22;997;48.448;8.924;2022-08-19T12:53:41;20.10;99.90
1992;DHT22;997;48.448;8.924;2022-08-19T12:56:08;20.10;99.90
1992;DHT22;997;48.448;8.924;2022-08-19T12:58:34;20.10;99.90
1992;DHT22;997;48.448;8.924;2022-08-19T13:01:07;20.10;99.90
1992;DHT22;997;48.448;8.924;2022-08-19T13:03:33;20.10;99.90
1992;DHT22;997;48.448;8.924;2022-08-19T13:05:59;20.20;99.90
1992;DHT22;997;48.448;8.924;2022-08-19T13:08:25;20.10;99.90
1992;DHT22;997;48.448;8.924;2022-08-19T13:10:50;20.20;99.90
1992;DHT22;997;48.448;8.924;2022-08-19T13:13:16;20.20;99.90
1992;DHT22;997;48.448;8.924;2022-08-19T13:15:42;20.10;99.90
1992;DHT22;997;48.448;8.924;2022-08-19T13:18:11;20.10;99.90
1992;DHT22;997;48.448;8.924;2022-08-19T13:20:38;20.10;99.90
1992;DHT22;997;48.448;8.924;2022-08-19T13:23:06;20.20;99.90
1992;DHT22;997;48.448;8.924;2022-08-19T13:25:32;20.30;99.90
1992;DHT22;997;48.448;8.924;2022-08-19T13:27:59;20.40;99.90
1992;DHT22;997;48.448;8.924;2022-08-19T13:30:25;20.40;99.90
1992;DHT22;997;48.448;8.924;2022-08-19T13:33:09;20.40;99.90
1992;DHT22;997;48.448;8.924;2022-08-19T13:35:50;20.40;99.90
1992;DHT22;997;48.448;8.924;2022-08-19T13:38:21;20.30;99.90
1992;DHT22;997;48.448;8.924;2022-08-19T13:40:47;20.20;99.90
1992;DHT22;997;48.448;8.924;2022-08-19T13:43:16;20.30;99.90
1992;DHT22;997;48.448;8.924;2022-08-19T13:45:42;20.20;99.90
1992;DHT22;997;48.448;8.924;2022-08-19T13:48:08;20.30;99.90
1992;DHT22;997;48.448;8.924;2022-08-19T13:50:39;20.30;99.90
1992;DHT22;997;48.448;8.924;2022-08-19T13:53:09;20.30;99.90
1992;DHT22;997;48.448;8.924;2022-08-19T13:55:40;20.40;99.90
1992;DHT22;997;48.448;8.924;2022-08-19T13:58:07;20.60;99.90
1992;DHT22;997;48.448;8.924;2022-08-19T14:00:38;20.60;99.90
1992;DHT22;997;48.448;8.924;2022-08-19T14:03:04;20.80;99.90
1992;DHT22;997;48.448;8.924;2022-08-19T14:05:31;20.80;99.90
1992;DHT22;997;48.448;8.924;2022-08-19T14:07:57;21.10;99.90
1992;DHT22;997;48.448;8.924;2022-08-19T14:10:24;21.20;99.90
1992;DHT22;997;48.448;8.924;2022-08-19T14:12:53;21.40;99.90
1992;DHT22;997;48.448;8.924;2022-08-19T14:15:21;21.60;99.90
1992;DHT22;997;48.448;8.924;2022-08-19T14:17:47;21.90;99.90
1992;DHT22;997;48.448;8.924;2022-08-19T14:20:14;22.10;99.90
1992;DHT22;997;48.448;8.924;2022-08-19T14:22:43;22.40;99.90
1992;DHT22;997;48.448;8.924;2022-08-19T14:25:13;22.70;99.90
1992;DHT22;997;48.448;8.924;2022-08-19T14:27:40;23.10;99.90
1992;DHT22;997;48.448;8.924;2022-08-19T14:30:12;23.20;99.90
1992;DHT22;997;48.448;8.924;2022-08-19T14:32:38;23.30;99.90
1992;DHT22;997;48.448;8.924;2022-08-19T14:35:05;23.30;99.90
1992;DHT22;997;48.448;8.924;2022-08-19T14:37:33;23.10;99.90
1992;DHT22;997;48.448;8.924;2022-08-19T14:40:00;22.90;99.90
1992;DHT22;997;48.448;8.924;2022-08-19T14:42:25;23.10;99.90
1992;DHT22;997;48.448;8.924;2022-08-19T14:44:51;23.10;99.90
1992;DHT22;997;48.448;8.924;2022-08-19T14:47:17;23.10;99.90
1992;DHT22;997;48.448;8.924;2022-08-19T14:49:42;23.10;99.90
1992;DHT22;997;48.448;8.924;2022-08-19T14:52:09;23.20;99.90
1992;DHT22;997;48.448;8.924;2022-08-19T14:54:34;23.30;99.90
1992;DHT22;997;48.448;8.924;2022-08-19T14:57:00;23.30;99.90
1992;DHT22;997;48.448;8.924;2022-08-19T14:59:26;23.40;99.90
1992;DHT22;997;48.448;8.924;2022-08-19T15:01:51;23.50;99.90
1992;DHT22;997;48.448;8.924;2022-08-19T15:04:17;23.50;99.90
1992;DHT22;997;48.448;8.924;2022-08-19T15:06:43;23.60;99.90
1992;DHT22;997;48.448;8.924;2022-08-19T15:09:09;23.70;99.90
1992;DHT22;997;48.448;8.924;2022-08-19T15:11:35;23.80;99.90
1992;DHT22;997;48.448;8.924;2022-08-19T15:14:02;23.90;99.90
1992;DHT22;997;48.448;8.924;2022-08-19T15:16:27;24.10;99.90
1992;DHT22;997;48.448;8.924;2022-08-19T15:18:56;24.20;99.90
1992;DHT22;997;48.448;8.924;2022-08-19T15:21:23;24.40;99.90
1992;DHT22;997;48.448;8.924;2022-08-19T15:23:50;24.50;99.90
1992;DHT22;997;48.448;8.924;2022-08-19T15:26:18;24.60;99.90
1992;DHT22;997;48.448;8.924;2022-08-19T15:28:44;24.60;99.90
1992;DHT22;997;48.448;8.924;2022-08-19T15:31:11;24.60;99.90
1992;DHT22;997;48.448;8.924;2022-08-19T15:33:38;24.70;99.90
1992;DHT22;997;48.448;8.924;2022-08-19T15:36:07;24.90;99.90
1992;DHT22;997;48.448;8.924;2022-08-19T15:38:34;24.90;99.90
1992;DHT22;997;48.448;8.924;2022-08-19T15:41:01;25.20;99.90
1992;DHT22;997;48.448;8.924;2022-08-19T15:43:46;25.50;99.90
1992;DHT22;997;48.448;8.924;2022-08-19T15:46:14;25.70;99.90
1992;DHT22;997;48.448;8.924;2022-08-19T15:48:42;25.80;99.90
1992;DHT22;997;48.448;8.924;2022-08-19T15:51:07;25.80;99.90
1992;DHT22;997;48.448;8.924;2022-08-19T15:53:33;25.70;99.90
1992;DHT22;997;48.448;8.924;2022-08-19T15:55:59;25.60;99.90
1992;DHT22;997;48.448;8.924;2022-08-19T15:58:25;25.20;99.90
1992;DHT22;997;48.448;8.924;2022-08-19T16:01:10;25.20;99.90
1992;DHT22;997;48.448;8.924;2022-08-19T16:03:56;25.20;99.90
1992;DHT22;997;48.448;8.924;2022-08-19T16:06:53;25.30;99.90
1992;DHT22;997;48.448;8.924;2022-08-19T16:09:21;25.20;99.90
1992;DHT22;997;48.448;8.924;2022-08-19T16:11:48;25.20;99.90
1992;DHT22;997;48.448;8.924;2022-08-19T16:14:15;25.00;99.90
1992;DHT22;997;48.448;8.924;2022-08-19T16:16:42;24.70;99.90
1992;DHT22;997;48.448;8.924;2022-08-19T16:19:12;24.50;99.90
1992;DHT22;997;48.448;8.924;2022-08-19T16:21:46;24.40;99.90
1992;DHT22;997;48.448;8.924;2022-08-19T16:24:14;24.30;99.90
1992;DHT22;997;48.448;8.924;2022-08-19T16:26:42;24.30;99.90
1992;DHT22;997;48.448;8.924;2022-08-19T16:29:08;24.00;99.90
1992;DHT22;997;48.448;8.924;2022-08-19T16:31:35;23.80;99.90
1992;DHT22;997;48.448;8.924;2022-08-19T16:34:01;23.50;99.90
1992;DHT22;997;48.448;8.924;2022-08-19T16:36:27;23.40;99.90
1992;DHT22;997;48.448;8.924;2022-08-19T16:38:53;23.50;99.90
1992;DHT22;997;48.448;8.924;2022-08-19T16:41:20;23.40;99.90
1992;DHT22;997;48.448;8.924;2022-08-19T16:43:46;23.40;99.90
1992;DHT22;997;48.448;8.924;2022-08-19T16:46:13;23.40;99.90
1992;DHT22;997;48.448;8.924;2022-08-19T16:48:39;23.40;99.90
1992;DHT22;997;48.448;8.924;2022-08-19T16:51:08;23.50;99.90
1992;DHT22;997;48.448;8.924;2022-08-19T16:53:36;23.40;99.90
1992;DHT22;997;48.448;8.924;2022-08-19T16:56:02;23.40;99.90
1992;DHT22;997;48.448;8.924;2022-08-19T16:58:28;23.50;99.90
1992;DHT22;997;48.448;8.924;2022-08-19T17:00:57;23.40;99.90
1992;DHT22;997;48.448;8.924;2022-08-19T17:03:23;23.30;99.90
1992;DHT22;997;48.448;8.924;2022-08-19T17:05:51;23.20;99.90
1992;DHT22;997;48.448;8.924;2022-08-19T17:08:23;23.20;99.90
1992;DHT22;997;48.448;8.924;2022-08-19T17:10:54;23.10;99.90
1992;DHT22;997;48.448;8.924;2022-08-19T17:13:20;23.00;99.90
1992;DHT22;997;48.448;8.924;2022-08-19T17:15:47;22.90;99.90
1992;DHT22;997;48.448;8.924;2022-08-19T17:18:13;22.80;99.90
1992;DHT22;997;48.448;8.924;2022-08-19T17:20:40;22.90;99.90
1992;DHT22;997;48.448;8.924;2022-08-19T17:23:06;22.90;99.90
1992;DHT22;997;48.448;8.924;2022-08-19T17:25:32;22.80;99.90
1992;DHT22;997;48.448;8.924;2022-08-19T17:28:13;22.70;99.90
1992;DHT22;997;48.448;8.924;2022-08-19T17:30:39;22.70;99.90
1992;DHT22;997;48.448;8.924;2022-08-19T17:33:05;22.50;99.90
1992;DHT22;997;48.448;8.924;2022-08-19T17:35:32;22.50;99.90
1992;DHT22;997;48.448;8.924;2022-08-19T17:38:03;22.50;99.90
1992;DHT22;997;48.448;8.924;2022-08-19T17:40:29;22.50;99.90
1992;DHT22;997;48.448;8.924;2022-08-19T17:42:55;22.40;99.90
1992;DHT22;997;48.448;8.924;2022-08-19T17:45:21;22.30;99.90
1992;DHT22;997;48.448;8.924;2022-08-19T17:47:47;22.20;99.90
1992;DHT22;997;48.448;8.924;2022-08-19T17:50:12;22.10;99.90
1992;DHT22;997;48.448;8.924;2022-08-19T17:52:39;22.10;99.90
1992;DHT22;997;48.448;8.924;2022-08-19T17:55:06;22.10;99.90
1992;DHT22;997;48.448;8.924;2022-08-19T17:57:32;22.10;99.90
1992;DHT22;997;48.448;8.924;2022-08-19T17:59:57;22.10;99.90
1992;DHT22;997;48.448;8.924;2022-08-19T18:02:24;22.00;99.90
1992;DHT22;997;48.448;8.924;2022-08-19T18:04:50;22.00;99.90
1992;DHT22;997;48.448;8.924;2022-08-19T18:07:16;21.90;99.90
1992;DHT22;997;48.448;8.924;2022-08-19T18:09:46;21.90;99.90
1992;DHT22;997;48.448;8.924;2022-08-19T18:12:23;21.80;99.90
1992;DHT22;997;48.448;8.924;2022-08-19T18:14:51;21.80;99.90
1992;DHT22;997;48.448;8.924;2022-08-19T18:17:17;21.70;99.90
1992;DHT22;997;48.448;8.924;2022-08-19T18:19:47;21.60;99.90
1992;DHT22;997;48.448;8.924;2022-08-19T18:22:31;21.60;99.90
1992;DHT22;997;48.448;8.924;2022-08-19T18:25:00;21.60;99.90
1992;DHT22;997;48.448;8.924;2022-08-19T18:27:26;21.70;99.90
1992;DHT22;997;48.448;8.924;2022-08-19T18:29:53;21.60;99.90
1992;DHT22;997;48.448;8.924;2022-08-19T18:32:22;21.70;99.90
1992;DHT22;997;48.448;8.924;2022-08-19T18:34:50;21.70;99.90
1992;DHT22;997;48.448;8.924;2022-08-19T18:37:16;21.80;99.90
1992;DHT22;997;48.448;8.924;2022-08-19T18:39:41;21.80;99.90
1992;DHT22;997;48.448;8.924;2022-08-19T18:42:25;21.70;99.90
1992;DHT22;997;48.448;8.924;2022-08-19T18:45:10;21.90;99.90
1992;DHT22;997;48.448;8.924;2022-08-19T18:47:54;21.90;99.90
1992;DHT22;997;48.448;8.924;2022-08-19T18:50:38;22.00;99.90
1992;DHT22;997;48.448;8.924;2022-08-19T18:53:08;21.90;99.90
1992;DHT22;997;48.448;8.924;2022-08-19T18:55:33;22.00;99.90
1992;DHT22;997;48.448;8.924;2022-08-19T18:57:59;21.90;99.90
1992;DHT22;997;48.448;8.924;2022-08-19T19:00:27;21.90;99.90
1992;DHT22;997;48.448;8.924;2022-08-19T19:02:52;21.90;99.90
1992;DHT22;997;48.448;8.924;2022-08-19T19:05:19;21.90;99.90
1992;DHT22;997;48.448;8.924;2022-08-19T19:07:47;22.00;99.90
1992;DHT22;997;48.448;8.924;2022-08-19T19:10:13;21.90;99.90
1992;DHT22;997;48.448;8.924;2022-08-19T19:12:41;21.90;99.90
1992;DHT22;997;48.448;8.924;2022-08-19T19:15:09;21.90;99.90
1992;DHT22;997;48.448;8.924;2022-08-19T19:17:35;21.80;99.90
1992;DHT22;997;48.448;8.924;2022-08-19T19:20:01;21.80;99.90
1992;DHT22;997;48.448;8.924;2022-08-19T19:22:27;21.90;99.90
1992;DHT22;997;48.448;8.924;2022-08-19T19:24:53;22.00;99.90
1992;DHT22;997;48.448;8.924;2022-08-19T19:27:20;21.90;99.90
1992;DHT22;997;48.448;8.924;2022-08-19T19:29:47;21.90;99.90
1992;DHT22;997;48.448;8.924;2022-08-19T19:32:20;22.00;99.90
1992;DHT22;997;48.448;8.924;2022-08-19T19:34:46;22.10;99.90